createdAt,value
2018-12-18T00:01:06.135Z,102435.77
2018-12-18T00:03:39.297Z,102435.45
2018-12-18T00:06:06.351Z,102442.55
2018-12-18T00:08:35.707Z,102445.92
2018-12-18T00:11:04.471Z,102439.45
2018-12-18T00:13:33.566Z,102444.83
2018-12-18T00:16:03.133Z,102447.31
2018-12-18T00:18:32.399Z,102445.98
2018-12-18T00:21:01.533Z,102444.69
2018-12-18T00:23:30.701Z,102449.64
2018-12-18T00:25:59.738Z,102450.42
2018-12-18T00:28:28.934Z,102452.82
2018-12-18T00:30:58.235Z,102449.56
2018-12-18T00:33:27.257Z,102455.21
2018-12-18T00:35:56.523Z,102455.53
2018-12-18T00:38:25.904Z,102457.72
2018-12-18T00:40:55.214Z,102457.80
2018-12-18T00:43:24.259Z,102459.09
2018-12-18T00:45:53.462Z,102467.61
2018-12-18T00:48:22.558Z,102465.63
2018-12-18T00:50:51.514Z,102475.80
2018-12-18T00:53:20.386Z,102471.60
2018-12-18T00:55:49.377Z,102471.60
2018-12-18T00:58:18.629Z,102472.70
2018-12-18T01:00:47.633Z,102467.52
2018-12-18T01:03:17.135Z,102477.97
2018-12-18T01:05:46.276Z,102483.36
2018-12-18T01:08:15.464Z,102496.72
2018-12-18T01:10:44.843Z,102494.14
2018-12-18T01:13:14.195Z,102496.52
2018-12-18T01:15:43.155Z,102492.16
2018-12-18T01:18:12.438Z,102491.34
2018-12-18T01:20:41.876Z,102501.11
2018-12-18T01:23:10.937Z,102504.09
2018-12-18T01:25:40.218Z,102503.02
2018-12-18T01:28:09.227Z,102490.26
2018-12-18T01:30:38.494Z,102486.77
2018-12-18T01:33:07.663Z,102474.83
2018-12-18T01:35:36.981Z,102478.63
2018-12-18T01:38:06.146Z,102480.82
2018-12-18T01:40:35.415Z,102473.75
2018-12-18T01:43:04.580Z,102464.27
2018-12-18T01:45:33.649Z,102470.27
2018-12-18T01:48:02.815Z,102472.85
2018-12-18T01:50:31.729Z,102472.03
2018-12-18T01:53:01.141Z,102472.85
2018-12-18T01:55:30.490Z,102474.25
2018-12-18T01:57:59.396Z,102472.36
2018-12-18T02:00:28.362Z,102475.05
2018-12-18T02:02:58.015Z,102472.85
2018-12-18T02:05:27.113Z,102467.76
2018-12-18T02:07:56.457Z,102460.39
2018-12-18T02:10:25.823Z,102453.54
2018-12-18T02:12:54.710Z,102458.02
2018-12-18T02:15:23.831Z,102454.33
2018-12-18T02:17:52.952Z,102448.98
2018-12-18T02:20:22.179Z,102445.67
2018-12-18T02:22:51.504Z,102446.77
2018-12-18T02:25:21.230Z,102448.57
2018-12-18T02:27:50.391Z,102452.97
2018-12-18T02:30:19.480Z,102459.12
2018-12-18T02:32:48.804Z,102456.84
2018-12-18T02:35:17.795Z,102454.94
2018-12-18T02:37:47.126Z,102452.44
2018-12-18T02:40:16.371Z,102458.72
2018-12-18T02:42:45.490Z,102460.90
2018-12-18T02:45:14.751Z,102456.64
2018-12-18T02:47:44.054Z,102463.89
2018-12-18T02:50:12.846Z,102462.50
2018-12-18T02:52:42.274Z,102459.12
2018-12-18T02:55:11.746Z,102465.09
2018-12-18T02:57:40.760Z,102465.09
2018-12-18T03:00:10.009Z,102456.84
2018-12-18T03:02:39.311Z,102452.37
2018-12-18T03:05:08.561Z,102454.53
2018-12-18T03:07:37.707Z,102455.55
2018-12-18T03:10:07.131Z,102461.51
2018-12-18T03:12:36.312Z,102467.20
2018-12-18T03:15:06.211Z,102473.95
2018-12-18T03:17:35.333Z,102468.66
2018-12-18T03:20:04.553Z,102468.87
2018-12-18T03:22:33.535Z,102459.50
2018-12-18T03:25:03.305Z,102467.47
2018-12-18T03:27:32.869Z,102454.61
2018-12-18T03:30:01.894Z,102484.30
2018-12-18T03:32:36.261Z,102484.52
2018-12-18T03:35:06.275Z,102473.26
2018-12-18T03:37:35.440Z,102478.31
2018-12-18T03:40:05.903Z,102476.75
2018-12-18T03:42:35.159Z,102484.39
2018-12-18T03:45:06.553Z,102486.28
2018-12-18T03:47:36.075Z,102494.65
2018-12-18T03:50:05.551Z,102482.02
2018-12-18T03:52:34.578Z,102481.59
2018-12-18T03:55:04.511Z,102486.39
2018-12-18T03:57:33.533Z,102481.53
2018-12-18T04:00:02.610Z,102487.87
2018-12-18T04:02:31.725Z,102501.80
2018-12-18T04:05:00.759Z,102490.58
2018-12-18T04:07:29.940Z,102502.91
2018-12-18T04:09:59.350Z,102507.78
2018-12-18T04:12:28.480Z,102511.79
2018-12-18T04:15:03.010Z,102521.62
2018-12-18T04:17:32.089Z,102521.53
2018-12-18T04:20:01.036Z,102511.98
2018-12-18T04:22:30.306Z,102514.84
2018-12-18T04:24:59.598Z,102524.72
2018-12-18T04:27:28.943Z,102512.46
2018-12-18T04:29:58.103Z,102510.69
2018-12-18T04:32:27.391Z,102516.86
2018-12-18T04:34:56.557Z,102514.27
2018-12-18T04:37:25.838Z,102521.52
2018-12-18T04:39:54.809Z,102515.66
2018-12-18T04:42:23.715Z,102515.16
2018-12-18T04:44:52.938Z,102520.13
2018-12-18T04:47:22.380Z,102517.64
2018-12-18T04:49:51.357Z,102513.03
2018-12-18T04:52:20.612Z,102499.41
2018-12-18T04:54:49.461Z,102496.44
2018-12-18T04:57:18.813Z,102494.45
2018-12-18T04:59:47.956Z,102497.15
2018-12-18T05:02:17.119Z,102494.47
2018-12-18T05:04:50.259Z,102480.41
2018-12-18T05:07:17.781Z,102481.22
2018-12-18T05:09:46.792Z,102471.86
2018-12-18T05:12:15.771Z,102472.27
2018-12-18T05:14:45.136Z,102470.37
2018-12-18T05:17:14.270Z,102460.72
2018-12-18T05:19:43.283Z,102458.31
2018-12-18T05:22:12.456Z,102471.37
2018-12-18T05:24:41.363Z,102464.50
2018-12-18T05:27:10.860Z,102465.39
2018-12-18T05:29:40.258Z,102473.56
2018-12-18T05:32:09.271Z,102477.31
2018-12-18T05:34:38.472Z,102466.86
2018-12-18T05:37:07.774Z,102476.42
2018-12-18T05:39:36.694Z,102487.19
2018-12-18T05:42:05.555Z,102486.19
2018-12-18T05:44:35.423Z,102499.93
2018-12-18T05:47:05.127Z,102514.95
2018-12-18T05:49:34.242Z,102518.53
2018-12-18T05:52:03.414Z,102516.04
2018-12-18T05:54:32.278Z,102527.09
2018-12-18T05:57:01.553Z,102526.70
2018-12-18T05:59:30.946Z,102528.81
2018-12-18T06:02:00.045Z,102523.33
2018-12-18T06:04:29.148Z,102521.83
2018-12-18T06:06:58.394Z,102533.57
2018-12-18T06:09:27.492Z,102531.10
2018-12-18T06:11:56.668Z,102531.19
2018-12-18T06:14:25.938Z,102533.36
2018-12-18T06:16:54.929Z,102527.80
2018-12-18T06:19:23.866Z,102447.16
2018-12-18T06:21:52.983Z,102522.20
2018-12-18T06:24:22.130Z,102531.56
2018-12-18T06:26:50.993Z,102526.91
2018-12-18T06:29:20.020Z,102517.94
2018-12-18T06:31:48.828Z,102503.20
2018-12-18T06:34:17.775Z,102506.17
2018-12-18T06:36:46.875Z,102508.58
2018-12-18T06:39:15.813Z,102526.39
2018-12-18T06:41:44.886Z,102521.22
2018-12-18T06:44:14.131Z,102516.44
2018-12-18T06:46:43.003Z,102524.50
2018-12-18T06:49:11.963Z,102516.34
2018-12-18T06:51:41.011Z,102496.12
2018-12-18T06:54:09.922Z,102487.58
2018-12-18T06:56:38.839Z,102498.33
2018-12-18T06:59:07.793Z,102488.38
2018-12-18T07:01:36.802Z,102497.09
2018-12-18T07:04:06.087Z,102497.61
2018-12-18T07:06:35.152Z,102477.52
2018-12-18T07:09:05.553Z,102478.42
2018-12-18T07:11:34.336Z,102470.45
2018-12-18T07:14:04.441Z,102487.17
2018-12-18T07:16:33.620Z,102494.84
2018-12-18T07:19:02.946Z,102496.33
2018-12-18T07:21:31.967Z,102493.65
2018-12-18T07:24:00.821Z,102491.98
2018-12-18T07:26:29.728Z,102500.82
2018-12-18T07:28:58.962Z,102515.63
2018-12-18T07:31:27.986Z,102519.23
2018-12-18T07:33:56.839Z,102517.64
2018-12-18T07:36:25.697Z,102507.86
2018-12-18T07:38:54.809Z,102504.79
2018-12-18T07:41:23.656Z,102506.30
2018-12-18T07:43:53.475Z,102516.92
2018-12-18T07:46:22.801Z,102507.29
2018-12-18T07:48:51.621Z,102505.78
2018-12-18T07:51:20.893Z,102510.67
2018-12-18T07:53:49.786Z,102507.67
2018-12-18T07:56:18.578Z,102506.89
2018-12-18T07:58:47.465Z,102520.82
2018-12-18T08:01:16.607Z,102522.20
2018-12-18T08:03:45.528Z,102534.16
2018-12-18T08:06:14.357Z,102524.50
2018-12-18T08:08:43.550Z,102522.00
2018-12-18T08:11:12.474Z,102527.98
2018-12-18T08:13:41.559Z,102516.65
2018-12-18T08:16:10.688Z,102515.53
2018-12-18T08:18:39.779Z,102522.42
2018-12-18T08:21:08.974Z,102527.38
2018-12-18T08:23:38.061Z,102523.41
2018-12-18T08:26:06.984Z,102512.06
2018-12-18T08:28:35.771Z,102514.66
2018-12-18T08:31:04.891Z,102511.37
2018-12-18T08:33:33.733Z,102517.33
2018-12-18T08:36:02.628Z,102514.26
2018-12-18T08:38:31.786Z,102505.30
2018-12-18T08:41:00.573Z,102508.27
2018-12-18T08:43:29.716Z,102514.84
2018-12-18T08:45:58.792Z,102509.19
2018-12-18T08:48:27.548Z,102515.05
2018-12-18T08:50:56.448Z,102507.08
2018-12-18T08:53:25.488Z,102509.19
2018-12-18T08:55:54.708Z,102509.19
2018-12-18T08:58:23.677Z,102504.48
2018-12-18T09:00:52.728Z,102510.17
2018-12-18T09:03:22.120Z,102513.85
2018-12-18T09:05:51.149Z,102519.84
2018-12-18T09:08:20.106Z,102517.33
2018-12-18T09:10:48.867Z,102523.33
2018-12-18T09:13:17.781Z,102513.18
2018-12-18T09:15:52.184Z,102508.78
2018-12-18T09:18:21.027Z,102506.61
2018-12-18T09:20:49.824Z,102505.99
2018-12-18T09:23:19.318Z,102507.09
2018-12-18T09:25:48.216Z,102506.39
2018-12-18T09:28:17.056Z,102506.67
2018-12-18T09:30:46.396Z,102497.61
2018-12-18T09:33:15.358Z,102478.11
2018-12-18T09:35:49.705Z,102511.48
2018-12-18T09:38:20.422Z,102492.42
2018-12-18T09:40:54.595Z,102490.04
2018-12-18T09:43:29.738Z,102502.38
2018-12-18T09:45:58.579Z,102508.06
2018-12-18T09:48:28.130Z,102500.00
2018-12-18T09:50:57.147Z,102497.31
2018-12-18T09:53:26.223Z,102499.78
2018-12-18T09:55:55.194Z,102499.98
2018-12-18T09:58:24.608Z,102499.67
2018-12-18T10:00:53.484Z,102499.09
2018-12-18T10:03:22.884Z,102492.19
2018-12-18T10:05:56.350Z,102494.67
2018-12-18T10:08:23.463Z,102502.61
2018-12-18T10:10:52.746Z,102502.80
2018-12-18T10:13:22.037Z,102505.17
2018-12-18T10:15:51.128Z,102509.14
2018-12-18T10:18:20.264Z,102373.09
2018-12-18T10:20:49.237Z,102525.13
2018-12-18T10:23:18.348Z,102505.95
2018-12-18T10:25:48.094Z,102514.20
2018-12-18T10:28:17.067Z,102514.08
2018-12-18T10:30:46.057Z,102505.52
2018-12-18T10:33:15.129Z,102501.63
2018-12-18T10:35:44.107Z,102497.30
2018-12-18T10:38:12.972Z,102497.16
2018-12-18T10:40:42.056Z,102505.61
2018-12-18T10:43:11.254Z,102496.25
2018-12-18T10:45:40.088Z,102488.59
2018-12-18T10:48:08.896Z,102482.90
2018-12-18T10:50:38.167Z,102479.64
2018-12-18T10:53:07.072Z,102470.44
2018-12-18T10:55:35.864Z,102467.84
2018-12-18T10:58:04.978Z,102460.14
2018-12-18T11:00:39.021Z,102451.25
2018-12-18T11:03:08.284Z,102450.74
2018-12-18T11:05:37.070Z,102471.41
2018-12-18T11:08:05.990Z,102464.80
2018-12-18T11:10:35.081Z,102458.64
2018-12-18T11:13:09.127Z,102456.04
2018-12-18T11:15:38.206Z,102461.30
2018-12-18T11:18:07.216Z,102461.23
2018-12-18T11:20:36.490Z,102462.02
2018-12-18T11:23:05.736Z,102446.45
2018-12-18T11:25:34.705Z,102449.50
2018-12-18T11:28:03.611Z,102429.98
2018-12-18T11:30:32.818Z,102455.22
2018-12-18T11:33:01.704Z,102447.17
2018-12-18T11:35:30.647Z,102441.40
2018-12-18T11:37:59.994Z,102440.18
2018-12-18T11:40:28.882Z,102452.81
2018-12-18T11:42:57.988Z,102458.00
2018-12-18T11:45:27.387Z,102454.77
2018-12-18T11:47:56.204Z,102447.41
2018-12-18T11:50:25.098Z,102451.56
2018-12-18T11:52:54.372Z,102438.45
2018-12-18T11:55:23.887Z,102432.88
2018-12-18T11:57:52.754Z,102437.34
2018-12-18T12:00:23.101Z,102427.63
2018-12-18T12:02:52.031Z,102431.28
2018-12-18T12:05:20.946Z,102432.37
2018-12-18T12:07:50.083Z,102425.34
2018-12-18T12:10:19.024Z,102428.73
2018-12-18T12:12:47.873Z,102435.73
2018-12-18T12:15:17.091Z,102436.70
2018-12-18T12:17:46.230Z,102432.99
2018-12-18T12:20:15.181Z,102416.13
2018-12-18T12:22:44.423Z,102420.59
2018-12-18T12:25:13.229Z,102425.06
2018-12-18T12:27:47.339Z,102421.83
2018-12-18T12:30:16.327Z,102419.73
2018-12-18T12:32:45.314Z,102424.42
2018-12-18T12:35:14.666Z,102424.31
2018-12-18T12:37:43.480Z,102428.06
2018-12-18T12:40:12.553Z,102421.80
2018-12-18T12:42:41.546Z,102418.30
2018-12-18T12:45:10.450Z,102417.00
2018-12-18T12:47:39.273Z,102414.91
2018-12-18T12:50:09.292Z,102416.34
2018-12-18T12:52:38.120Z,102410.22
2018-12-18T12:55:07.024Z,102410.51
2018-12-18T13:00:28.795Z,102401.42
2018-12-18T13:02:57.747Z,102404.16
2018-12-18T13:05:26.652Z,102406.75
2018-12-18T13:07:56.303Z,102403.80
2018-12-18T13:13:18.195Z,102398.64
2018-12-18T13:15:47.104Z,102400.41
2018-12-18T13:18:16.101Z,102387.14
2018-12-18T13:20:45.070Z,102378.86
2018-12-18T13:23:13.954Z,102380.48
2018-12-18T13:25:42.705Z,102377.70
2018-12-18T13:28:11.929Z,102384.52
2018-12-18T13:30:40.824Z,102371.86
2018-12-18T13:33:09.779Z,102359.28
2018-12-18T13:35:39.000Z,102367.79
2018-12-18T13:38:08.289Z,102368.55
2018-12-18T13:40:37.242Z,102368.55
2018-12-18T13:43:06.105Z,102367.32
2018-12-18T13:45:35.145Z,102366.53
2018-12-18T13:48:04.469Z,102369.13
2018-12-18T13:50:33.502Z,102368.94
2018-12-18T13:53:02.657Z,102369.37
2018-12-18T13:55:36.631Z,102365.55
2018-12-18T13:58:02.832Z,102367.20
2018-12-18T14:00:31.911Z,102353.97
2018-12-18T14:03:00.878Z,102358.27
2018-12-18T14:05:29.960Z,102358.27
2018-12-18T14:07:59.206Z,102361.91
2018-12-18T14:10:28.182Z,102366.05
2018-12-18T14:12:57.276Z,102365.70
2018-12-18T14:15:27.166Z,102348.50
2018-12-18T14:17:56.326Z,102358.27
2018-12-18T14:20:25.485Z,102359.71
2018-12-18T14:22:54.558Z,102362.55
2018-12-18T14:25:24.293Z,102360.39
2018-12-18T14:27:53.184Z,102351.95
2018-12-18T14:30:22.221Z,102352.77
2018-12-18T14:32:51.063Z,102351.39
2018-12-18T14:35:51.301Z,102356.59
2018-12-18T14:38:20.169Z,102350.25
2018-12-18T14:40:49.314Z,102350.97
2018-12-18T14:43:19.041Z,102343.53
2018-12-18T14:45:48.164Z,102349.70
2018-12-18T14:48:16.990Z,102351.22
2018-12-18T14:50:46.165Z,102353.74
2018-12-18T14:53:15.451Z,102350.00
2018-12-18T14:55:50.975Z,102339.44
2018-12-18T14:58:19.884Z,102341.56
2018-12-18T15:00:48.893Z,102338.83
2018-12-18T15:03:18.372Z,102343.36
2018-12-18T15:05:47.361Z,102342.22
2018-12-18T15:08:16.461Z,102344.91
2018-12-18T15:10:45.996Z,102337.86
2018-12-18T15:13:14.871Z,102343.30
2018-12-18T15:15:43.870Z,102340.61
2018-12-18T15:18:12.858Z,102342.24
2018-12-18T15:20:41.709Z,102343.52
2018-12-18T15:23:10.552Z,102354.73
2018-12-18T15:25:39.743Z,102353.27
2018-12-18T15:28:08.832Z,102352.30
2018-12-18T15:30:37.630Z,102361.21
2018-12-18T15:33:06.693Z,102363.48
2018-12-18T15:35:35.882Z,102367.33
2018-12-18T15:38:04.814Z,102364.07
2018-12-18T15:40:34.136Z,102210.56
2018-12-18T15:43:03.947Z,102360.38
2018-12-18T15:45:32.920Z,102366.59
2018-12-18T15:48:02.031Z,102357.34
2018-12-18T15:50:31.054Z,102355.88
2018-12-18T15:52:59.824Z,102353.29
2018-12-18T15:55:28.765Z,102357.09
2018-12-18T15:57:57.645Z,102354.28
2018-12-18T16:00:26.445Z,102352.98
2018-12-18T16:02:55.571Z,102352.78
2018-12-18T16:05:24.550Z,102348.41
2018-12-18T16:07:53.405Z,102345.65
2018-12-18T16:10:22.464Z,102344.75
2018-12-18T16:12:51.382Z,102332.49
2018-12-18T16:15:20.393Z,102336.23
2018-12-18T16:17:49.340Z,102330.71
2018-12-18T16:20:18.223Z,102327.48
2018-12-18T16:22:47.111Z,102333.29
2018-12-18T16:25:16.236Z,102337.52
2018-12-18T16:27:45.287Z,102334.59
2018-12-18T16:30:14.246Z,102330.22
2018-12-18T16:32:43.275Z,102335.75
2018-12-18T16:35:12.184Z,102315.28
2018-12-18T16:37:40.989Z,102323.09
2018-12-18T16:40:10.143Z,102317.40
2018-12-18T16:42:39.493Z,102314.31
2018-12-18T16:45:08.509Z,102317.71
2018-12-18T16:47:37.674Z,102320.98
2018-12-18T16:50:06.695Z,102317.24
2018-12-18T16:52:35.693Z,102318.56
2018-12-18T16:55:05.934Z,102316.19
2018-12-18T16:57:34.881Z,102319.19
2018-12-18T17:00:03.989Z,102317.26
2018-12-18T17:02:33.386Z,102310.09
2018-12-18T17:05:02.472Z,102311.55
2018-12-18T17:07:31.450Z,102308.05
2018-12-18T17:10:00.381Z,102305.45
2018-12-18T17:12:29.393Z,102309.13
2018-12-18T17:16:01.698Z,102312.69
2018-12-18T17:18:30.675Z,102309.13
2018-12-18T17:20:59.551Z,102309.37
2018-12-18T17:23:28.742Z,102308.81
2018-12-18T17:25:57.679Z,102309.16
2018-12-18T17:28:26.527Z,102301.49
2018-12-18T17:30:55.632Z,102306.55
2018-12-18T17:33:24.560Z,102302.50
2018-12-18T17:35:53.388Z,102296.64
2018-12-18T17:38:23.728Z,102297.77
2018-12-18T17:40:53.115Z,102288.51
2018-12-18T17:43:22.434Z,102293.64
2018-12-18T17:45:51.447Z,102297.03
2018-12-18T17:48:20.298Z,102305.09
2018-12-18T17:50:49.653Z,102310.77
2018-12-18T17:53:18.733Z,102314.66
2018-12-18T17:55:47.725Z,102317.09
2018-12-18T17:58:16.954Z,102306.04
2018-12-18T18:00:46.314Z,102308.80
2018-12-18T18:03:15.443Z,102304.74
2018-12-18T18:05:44.770Z,102298.58
2018-12-18T18:08:14.296Z,102306.94
2018-12-18T18:10:43.391Z,102301.34
2018-12-18T18:13:12.583Z,102294.84
2018-12-18T18:15:41.814Z,102296.15
2018-12-18T18:18:10.816Z,102289.48
2018-12-18T18:20:39.679Z,102286.09
2018-12-18T18:23:09.315Z,102289.25
2018-12-18T18:25:38.105Z,102289.31
2018-12-18T18:28:07.242Z,102287.52
2018-12-18T18:30:36.476Z,102287.18
2018-12-18T18:33:06.167Z,102286.31
2018-12-18T18:35:35.018Z,102276.95
2018-12-18T18:38:04.237Z,102269.16
2018-12-18T18:40:33.719Z,102273.23
2018-12-18T18:43:02.938Z,102274.86
2018-12-18T18:45:32.107Z,102270.46
2018-12-18T18:48:00.966Z,102272.76
2018-12-18T18:50:30.212Z,102268.99
2018-12-18T18:52:59.593Z,102266.09
2018-12-18T18:55:28.542Z,102264.96
2018-12-18T18:57:57.418Z,102265.77
2018-12-18T19:00:26.412Z,102266.89
2018-12-18T19:02:55.263Z,102275.98
2018-12-18T19:05:24.198Z,102271.92
2018-12-18T19:07:56.433Z,102271.09
2018-12-18T19:10:24.242Z,102263.95
2018-12-18T19:12:57.652Z,102263.95
2018-12-18T19:15:26.771Z,102262.82
2018-12-18T19:17:56.095Z,102262.19
2018-12-18T19:20:25.547Z,102254.06
2018-12-18T19:22:54.599Z,102258.59
2018-12-18T19:25:24.674Z,102269.55
2018-12-18T19:27:54.073Z,102268.48
2018-12-18T19:30:23.313Z,102274.85
2018-12-18T19:32:52.119Z,102272.38
2018-12-18T19:35:21.492Z,102270.95
2018-12-18T19:37:50.678Z,102267.06
2018-12-18T19:40:19.568Z,102264.80
2018-12-18T19:42:48.767Z,102254.86
2018-12-18T19:45:17.861Z,102254.97
2018-12-18T19:47:47.096Z,102259.89
2018-12-18T19:50:16.715Z,102257.45
2018-12-18T19:52:45.864Z,102258.09
2018-12-18T19:55:15.092Z,102258.59
2018-12-18T19:57:44.137Z,102255.98
2018-12-18T20:00:13.200Z,102255.31
2018-12-18T20:02:42.024Z,102248.52
2018-12-18T20:05:11.707Z,102256.38
2018-12-18T20:07:40.927Z,102249.48
2018-12-18T20:10:10.065Z,102241.68
2018-12-18T20:12:39.838Z,102245.98
2018-12-18T20:15:08.948Z,102238.91
2018-12-18T20:17:38.128Z,102237.61
2018-12-18T20:20:08.361Z,102235.06
2018-12-18T20:22:37.616Z,102230.09
2018-12-18T20:25:06.988Z,102240.65
2018-12-18T20:27:36.062Z,102229.06
2018-12-18T20:30:05.619Z,102228.11
2018-12-18T20:32:34.862Z,102231.45
2018-12-18T20:35:04.015Z,102229.97
2018-12-18T20:37:33.189Z,102231.89
2018-12-18T20:40:02.205Z,102224.27
2018-12-18T20:42:31.715Z,102226.70
2018-12-18T20:45:00.960Z,102224.78
2018-12-18T20:47:30.099Z,102223.48
2018-12-18T20:49:59.418Z,102210.64
2018-12-18T20:52:28.307Z,102202.34
2018-12-18T20:54:57.491Z,102202.97
2018-12-18T20:57:26.893Z,102203.13
2018-12-18T20:59:56.186Z,102205.09
2018-12-18T21:02:25.603Z,102200.71
2018-12-18T21:04:54.994Z,102195.98
2018-12-18T21:07:24.219Z,102199.73
2018-12-18T21:09:53.366Z,102189.91
2018-12-18T21:12:22.666Z,102189.53
2018-12-18T21:14:51.497Z,102193.99
2018-12-18T21:17:20.774Z,102200.98
2018-12-18T21:19:50.757Z,102196.01
2018-12-18T21:22:20.125Z,102196.81
2018-12-18T21:24:49.248Z,102195.85
2018-12-18T21:27:18.706Z,102194.87
2018-12-18T21:29:47.691Z,102191.09
2018-12-18T21:32:16.937Z,102184.94
2018-12-18T21:34:46.213Z,102184.77
2018-12-18T21:37:15.626Z,102181.71
2018-12-18T21:39:44.793Z,102186.39
2018-12-18T21:42:14.110Z,102184.97
2018-12-18T21:44:43.474Z,102181.38
2018-12-18T21:47:12.516Z,102178.06
2018-12-18T21:49:41.965Z,102164.94
2018-12-18T21:52:11.119Z,102172.83
2018-12-18T21:54:40.164Z,102166.67
2018-12-18T21:57:09.276Z,102163.86
2018-12-18T21:59:38.395Z,102174.01
2018-12-18T22:02:07.489Z,102177.53
2018-12-18T22:04:36.798Z,102178.53
2018-12-18T22:07:05.977Z,102181.69
2018-12-18T22:09:35.104Z,102174.34
2018-12-18T22:12:04.355Z,102177.84
2018-12-18T22:14:33.556Z,102175.65
2018-12-18T22:17:02.720Z,102179.48
2018-12-18T22:19:32.167Z,102181.96
2018-12-18T22:22:01.191Z,102185.68
2018-12-18T22:24:30.148Z,102186.17
2018-12-18T22:26:59.418Z,102184.72
2018-12-18T22:29:28.465Z,102177.88
2018-12-18T22:31:57.888Z,102178.03
2018-12-18T22:34:27.273Z,102177.53
2018-12-18T22:36:56.374Z,102174.75
2018-12-18T22:39:25.351Z,102180.91
2018-12-18T22:41:54.940Z,102173.30
2018-12-18T22:44:24.201Z,102179.67
2018-12-18T22:46:53.467Z,102171.38
2018-12-18T22:49:22.945Z,102165.49
2018-12-18T22:51:51.941Z,102157.29
2018-12-18T22:54:21.187Z,102157.58
2018-12-18T22:56:50.629Z,102150.69
2018-12-18T22:59:19.453Z,102149.85
2018-12-18T23:01:48.499Z,102153.14
2018-12-18T23:04:17.807Z,102152.92
2018-12-18T23:06:46.866Z,102148.28
2018-12-18T23:09:16.964Z,102143.27
2018-12-18T23:11:46.982Z,102145.03
2018-12-18T23:14:16.263Z,102145.13
2018-12-18T23:16:45.407Z,102144.69
2018-12-18T23:19:14.735Z,102132.13
2018-12-18T23:21:43.818Z,102133.98
2018-12-18T23:24:12.795Z,102126.83
2018-12-18T23:26:42.132Z,102133.63
2018-12-18T23:29:11.139Z,102130.67
2018-12-18T23:31:40.217Z,102129.43
2018-12-18T23:34:09.274Z,102125.68
2018-12-18T23:36:38.374Z,102125.53
2018-12-18T23:39:08.726Z,102127.78
2018-12-18T23:41:38.382Z,102124.72
2018-12-18T23:44:07.600Z,102127.57
2018-12-18T23:46:36.607Z,102126.75
2018-12-18T23:49:05.933Z,102121.20
2018-12-18T23:51:35.083Z,102119.22
2018-12-18T23:54:04.242Z,102119.56
2018-12-18T23:56:33.422Z,102115.51
2018-12-18T23:59:03.252Z,102109.16
